Time;durP1;ratioP1;P1;durP2;ratioP2;P2;SDS_P1;SDS_P2;PMS_P1;PMS_P2;Temp;Humidity;BMP_temperature;BMP_pressure;BME280_temperature;BME280_humidity;BME280_pressure;Samples;Min_cycle;Max_cycle;Signal;HPM_P1;HPM_P2
2023/04/30 00:02:08;;;;;;;25.23;10.60;;;9.20;99.90;;;;;;5035980;28;20099;-88
2023/04/30 00:04:37;;;;;;;26.05;10.32;;;9.20;99.90;;;;;;5035805;28;20403;-90
2023/04/30 00:07:04;;;;;;;24.80;10.32;;;9.10;99.90;;;;;;5035342;28;20049;-90
2023/04/30 00:09:30;;;;;;;25.55;10.25;;;9.10;99.90;;;;;;5035235;28;20046;-90
2023/04/30 00:11:57;;;;;;;27.02;10.07;;;9.00;99.90;;;;;;5018711;28;20053;-88
2023/04/30 00:14:24;;;;;;;23.17;10.32;;;9.00;99.90;;;;;;5018835;28;20056;-89
2023/04/30 00:16:51;;;;;;;25.98;10.20;;;8.90;99.90;;;;;;5036073;28;20045;-91
2023/04/30 00:19:19;;;;;;;33.92;12.85;;;8.90;99.90;;;;;;5019673;28;20518;-89
2023/04/30 00:21:46;;;;;;;25.83;10.38;;;8.90;99.90;;;;;;5020036;28;20383;-88
2023/04/30 00:24:13;;;;;;;29.85;11.15;;;8.80;99.90;;;;;;5021066;28;20064;-91
2023/04/30 00:26:41;;;;;;;27.48;11.35;;;8.80;99.90;;;;;;5020893;28;20037;-89
2023/04/30 00:31:54;;;;;;;28.88;10.45;;;8.80;99.90;;;;;;5035877;28;20045;-89
2023/04/30 00:34:21;;;;;;;30.35;10.55;;;8.70;99.90;;;;;;5018619;28;20045;-89
2023/04/30 00:36:50;;;;;;;24.77;9.50;;;8.70;99.90;;;;;;5035426;28;20072;-88
2023/04/30 00:39:18;;;;;;;24.80;10.43;;;8.70;99.90;;;;;;5035419;28;20536;-91
2023/04/30 00:41:45;;;;;;;20.33;9.48;;;8.70;99.90;;;;;;5018414;28;20045;-90
2023/04/30 00:44:11;;;;;;;29.15;11.55;;;8.60;99.90;;;;;;5035351;28;20076;-89
2023/04/30 00:46:38;;;;;;;25.30;10.35;;;8.50;99.90;;;;;;4975730;28;1277160;-90
2023/04/30 00:49:07;;;;;;;22.83;9.80;;;8.50;99.90;;;;;;5019653;28;20046;-89
2023/04/30 00:51:33;;;;;;;27.30;10.70;;;8.40;99.90;;;;;;5019763;28;20136;-89
2023/04/30 00:54:01;;;;;;;30.38;11.02;;;8.40;99.90;;;;;;5019194;28;20057;-88
2023/04/30 00:56:27;;;;;;;29.20;12.27;;;8.30;99.90;;;;;;5035993;28;20115;-90
2023/04/30 01:02:22;;;;;;;27.35;10.70;;;8.10;99.90;;;;;;5036626;28;20032;-90
2023/04/30 01:04:49;;;;;;;23.27;9.55;;;8.10;99.90;;;;;;5019610;28;20100;-90
2023/04/30 01:07:16;;;;;;;21.95;9.70;;;8.10;99.90;;;;;;5019157;28;20043;-91
2023/04/30 01:09:43;;;;;;;29.02;9.90;;;8.10;99.90;;;;;;5019478;28;20464;-91
2023/04/30 01:12:10;;;;;;;27.05;11.00;;;8.10;99.90;;;;;;5019432;28;20136;-89
2023/04/30 01:14:37;;;;;;;22.27;9.18;;;8.00;99.90;;;;;;5018793;28;20060;-91
2023/04/30 01:17:04;;;;;;;22.60;9.75;;;8.00;99.90;;;;;;5035614;28;20041;-90
2023/04/30 01:19:32;;;;;;;25.92;10.13;;;8.00;99.90;;;;;;5019901;28;20051;-91
2023/04/30 01:22:00;;;;;;;35.35;11.57;;;7.90;99.90;;;;;;5018957;28;20045;-91
2023/04/30 01:24:27;;;;;;;26.42;9.60;;;7.90;99.90;;;;;;5035274;28;20472;-91
2023/04/30 01:26:55;;;;;;;28.65;10.18;;;7.80;99.90;;;;;;5019682;28;20068;-90
2023/04/30 01:31:55;;;;;;;30.40;10.02;;;7.80;99.90;;;;;;5035620;28;20052;-90
2023/04/30 01:34:22;;;;;;;20.92;9.02;;;7.80;99.90;;;;;;5034834;28;20109;-91
2023/04/30 01:36:49;;;;;;;23.67;9.75;;;7.80;99.90;;;;;;5035433;28;20045;-89
2023/04/30 01:39:18;;;;;;;24.55;9.60;;;7.80;99.90;;;;;;5035061;28;20068;-89
2023/04/30 01:41:45;;;;;;;21.85;8.65;;;7.70;99.90;;;;;;5034559;28;20489;-90
2023/04/30 01:44:12;;;;;;;25.63;10.80;;;7.70;99.90;;;;;;5018634;28;20037;-89
2023/04/30 01:46:40;;;;;;;27.02;10.77;;;7.70;99.90;;;;;;5018951;28;20050;-89
2023/04/30 01:51:56;;;;;;;25.05;10.55;;;7.70;99.90;;;;;;5035089;28;20373;-90
2023/04/30 01:54:23;;;;;;;28.92;10.07;;;7.70;99.90;;;;;;5018151;28;20045;-90
2023/04/30 01:56:50;;;;;;;24.25;10.35;;;7.70;99.90;;;;;;5018711;28;20045;-89
2023/04/30 02:02:22;;;;;;;30.23;10.82;;;7.60;99.90;;;;;;5034569;28;20021;-89
2023/04/30 02:04:49;;;;;;;28.85;11.02;;;7.60;99.90;;;;;;5018558;28;20452;-89
2023/04/30 02:07:16;;;;;;;30.80;12.50;;;7.60;99.90;;;;;;5017789;28;20136;-90
2023/04/30 02:09:42;;;;;;;37.30;12.32;;;7.50;99.90;;;;;;5019185;28;20376;-89
2023/04/30 02:12:09;;;;;;;36.67;13.35;;;7.50;99.90;;;;;;5018717;28;20049;-90
2023/04/30 02:14:36;;;;;;;36.83;12.52;;;7.50;99.90;;;;;;5017797;28;20115;-89
2023/04/30 02:17:05;;;;;;;35.63;13.45;;;7.50;99.90;;;;;;5018360;28;20109;-90
2023/04/30 02:23:00;;;;;;;33.28;13.10;;;7.50;99.90;;;;;;5035318;28;20166;-89
2023/04/30 02:25:27;;;;;;;32.78;12.80;;;7.50;99.90;;;;;;5018634;28;20068;-89
2023/04/30 02:30:46;;;;;;;33.55;13.18;;;7.40;99.90;;;;;;5035174;28;20452;-91
2023/04/30 02:33:15;;;;;;;37.38;12.15;;;7.50;99.90;;;;;;5034655;28;20111;-90
2023/04/30 02:35:42;;;;;;;34.78;12.30;;;7.40;99.90;;;;;;5033975;28;20045;-89
2023/04/30 02:41:37;;;;;;;32.65;12.95;;;7.40;99.90;;;;;;5034685;28;20044;-91
2023/04/30 02:44:04;;;;;;;37.78;14.43;;;7.40;99.90;;;;;;5017655;28;20403;-88
2023/04/30 02:46:31;;;;;;;32.17;13.02;;;7.40;99.90;;;;;;5018473;28;20074;-90
2023/04/30 02:52:15;;;;;;;31.88;13.27;;;7.40;99.90;;;;;;5034600;28;20052;-88
2023/04/30 02:54:42;;;;;;;33.85;13.10;;;7.40;99.90;;;;;;5033532;28;20051;-89
2023/04/30 02:57:09;;;;;;;33.95;14.05;;;7.30;99.90;;;;;;5018058;28;20103;-88
2023/04/30 02:59:37;;;;;;;38.08;13.40;;;7.30;99.90;;;;;;5034656;28;20490;-88
2023/04/30 03:02:04;;;;;;;35.67;13.10;;;7.30;99.90;;;;;;5017800;28;20145;-89
2023/04/30 03:04:31;;;;;;;31.95;11.88;;;7.40;99.90;;;;;;5035049;28;20064;-89
2023/04/30 03:06:59;;;;;;;38.88;12.77;;;7.30;99.90;;;;;;5018869;28;20049;-88
2023/04/30 03:09:29;;;;;;;37.13;13.25;;;7.30;99.90;;;;;;5035148;28;20059;-89
2023/04/30 03:11:56;;;;;;;36.17;13.82;;;7.30;99.90;;;;;;5035742;28;20053;-90
2023/04/30 03:14:22;;;;;;;32.15;12.93;;;7.40;99.90;;;;;;5034459;28;20060;-88
2023/04/30 03:16:49;;;;;;;35.38;12.10;;;7.30;99.90;;;;;;5018623;28;20381;-88
2023/04/30 03:21:46;;;;;;;36.92;13.05;;;7.40;99.90;;;;;;5033915;28;20041;-89
2023/04/30 03:24:13;;;;;;;35.72;13.48;;;7.40;99.90;;;;;;5034426;28;20384;-89
2023/04/30 03:26:39;;;;;;;32.75;13.00;;;7.40;99.90;;;;;;5034322;28;20136;-88
2023/04/30 03:31:55;;;;;;;29.23;11.23;;;7.40;99.90;;;;;;5034325;28;20136;-90
2023/04/30 03:34:22;;;;;;;31.00;11.30;;;7.40;99.90;;;;;;5019332;28;20111;-89
2023/04/30 03:36:48;;;;;;;34.55;13.25;;;7.30;99.90;;;;;;5037606;28;20054;-89
2023/04/30 03:42:02;;;;;;;31.05;11.55;;;7.30;99.90;;;;;;5038046;28;20042;-88
2023/04/30 03:44:29;;;;;;;30.92;11.45;;;7.30;99.90;;;;;;5037231;28;20061;-88
2023/04/30 03:46:56;;;;;;;36.25;12.00;;;7.30;99.90;;;;;;5020445;28;20049;-88
2023/04/30 03:52:51;;;;;;;27.52;10.70;;;7.20;99.90;;;;;;5037842;28;20035;-89
2023/04/30 03:55:18;;;;;;;33.05;12.55;;;7.30;99.90;;;;;;5036926;28;20037;-88
2023/04/30 04:00:32;;;;;;;34.63;11.73;;;7.20;99.90;;;;;;5036614;28;20056;-89
2023/04/30 04:02:58;;;;;;;36.53;14.70;;;7.30;99.90;;;;;;5020564;28;20064;-88
2023/04/30 04:05:28;;;;;;;39.30;13.60;;;7.20;99.90;;;;;;5037147;28;20054;-90
2023/04/30 04:07:56;;;;;;;34.15;13.07;;;7.20;99.90;;;;;;5019839;28;20049;-89
2023/04/30 04:10:23;;;;;;;34.40;13.10;;;7.20;99.90;;;;;;5037656;28;20045;-87
2023/04/30 04:12:50;;;;;;;32.13;13.35;;;7.10;99.90;;;;;;5020733;28;20547;-88
2023/04/30 04:15:17;;;;;;;32.33;13.30;;;7.10;99.90;;;;;;5036071;28;20107;-88
2023/04/30 04:17:44;;;;;;;33.92;12.82;;;7.10;99.90;;;;;;5020325;28;20075;-90
2023/04/30 04:20:11;;;;;;;38.75;14.07;;;7.10;99.90;;;;;;5035917;28;20045;-90
2023/04/30 04:22:40;;;;;;;35.75;12.85;;;7.10;99.90;;;;;;5020352;28;20049;-88
2023/04/30 04:25:07;;;;;;;29.48;12.30;;;7.10;99.90;;;;;;5020346;28;20111;-90
2023/04/30 04:30:20;;;;;;;41.78;14.32;;;7.10;99.90;;;;;;5036794;28;20156;-89
2023/04/30 04:32:52;;;;;;;41.70;15.98;;;7.00;99.90;;;;;;5036483;28;20045;-88
2023/04/30 04:35:19;;;;;;;35.97;14.55;;;7.00;99.90;;;;;;5036074;28;20396;-88
2023/04/30 04:40:51;;;;;;;35.00;12.80;;;7.00;99.90;;;;;;5035617;28;20172;-91
2023/04/30 04:43:19;;;;;;;32.67;12.40;;;7.00;99.90;;;;;;5020145;28;20532;-89
2023/04/30 04:45:46;;;;;;;37.17;14.07;;;7.00;99.90;;;;;;5018667;28;20052;-90
2023/04/30 04:48:14;;;;;;;33.60;13.02;;;7.00;99.90;;;;;;5035535;28;20095;-90
2023/04/30 04:50:41;;;;;;;35.38;12.23;;;7.00;99.90;;;;;;5036146;28;20136;-89
2023/04/30 04:53:08;;;;;;;30.80;12.27;;;7.00;99.90;;;;;;5035794;28;20053;-88
2023/04/30 04:55:35;;;;;;;34.90;12.85;;;6.90;99.90;;;;;;5035177;28;20064;-88
2023/04/30 05:00:49;;;;;;;40.17;14.15;;;6.90;99.90;;;;;;5036236;28;20107;-90
2023/04/30 05:03:16;;;;;;;32.78;12.88;;;6.90;99.90;;;;;;5019646;28;20452;-88
2023/04/30 05:05:43;;;;;;;36.53;13.00;;;6.90;99.90;;;;;;5035664;28;20103;-88
2023/04/30 05:11:16;;;;;;;30.17;11.38;;;7.10;99.90;;;;;;5035825;28;20025;-89
2023/04/30 05:13:42;;;;;;;29.05;11.38;;;7.10;99.90;;;;;;5018993;28;20046;-88
2023/04/30 05:16:09;;;;;;;35.70;13.30;;;7.10;99.90;;;;;;5035464;28;20173;-89
2023/04/30 05:18:36;;;;;;;33.42;12.02;;;7.20;99.90;;;;;;5019303;28;20112;-89
2023/04/30 05:21:03;;;;;;;28.92;11.45;;;7.20;99.90;;;;;;5035267;28;20099;-89
2023/04/30 05:23:31;;;;;;;36.40;12.15;;;7.30;99.90;;;;;;5019471;28;20046;-87
2023/04/30 05:25:58;;;;;;;29.63;11.88;;;7.30;99.90;;;;;;5035567;28;20045;-85
2023/04/30 05:31:32;;;;;;;33.47;12.20;;;7.40;99.90;;;;;;5036332;28;20033;-87
2023/04/30 05:33:59;;;;;;;30.27;11.90;;;7.40;99.90;;;;;;5034649;28;20554;-86
2023/04/30 05:36:27;;;;;;;32.83;13.15;;;7.50;99.90;;;;;;5019122;28;20045;-90
2023/04/30 05:41:24;;;;;;;30.95;11.63;;;7.50;99.90;;;;;;5035220;28;20056;-85
2023/04/30 05:43:51;;;;;;;38.05;12.77;;;7.60;99.90;;;;;;5036104;28;20353;-86
2023/04/30 05:46:17;;;;;;;32.88;12.32;;;7.70;99.90;;;;;;5034852;28;20049;-88
2023/04/30 05:51:31;;;;;;;31.08;11.02;;;7.80;99.90;;;;;;5035022;28;20057;-87
2023/04/30 05:53:59;;;;;;;31.45;12.55;;;8.00;99.90;;;;;;5017861;28;20041;-85
2023/04/30 05:56:26;;;;;;;29.75;11.85;;;8.00;99.90;;;;;;5035062;28;20484;-85
2023/04/30 06:01:27;;;;;;;31.50;12.35;;;8.30;99.90;;;;;;5034274;28;20045;-90
2023/04/30 06:03:54;;;;;;;30.52;11.98;;;8.40;99.90;;;;;;5034285;28;20034;-84
2023/04/30 06:06:21;;;;;;;27.00;11.23;;;8.50;99.90;;;;;;5034502;28;20136;-87
2023/04/30 06:08:47;;;;;;;28.63;11.93;;;8.70;99.90;;;;;;5017814;28;20452;-85
2023/04/30 06:11:14;;;;;;;31.90;11.63;;;8.80;99.90;;;;;;5034420;28;20383;-86
2023/04/30 06:13:41;;;;;;;25.50;11.27;;;9.00;99.90;;;;;;5017499;28;20045;-86
2023/04/30 06:16:08;;;;;;;25.40;11.50;;;9.20;99.90;;;;;;5034400;28;20148;-85
2023/04/30 06:21:38;;;;;;;28.42;11.48;;;9.50;99.90;;;;;;5034787;28;20091;-85
2023/04/30 06:24:05;;;;;;;31.00;12.68;;;9.70;99.90;;;;;;5017924;28;20345;-86
2023/04/30 06:26:31;;;;;;;33.90;12.70;;;9.80;99.90;;;;;;5034639;28;20048;-84
2023/04/30 06:31:45;;;;;;;25.83;12.68;;;10.20;99.90;;;;;;5034286;28;20068;-86
2023/04/30 06:34:11;;;;;;;30.13;12.45;;;10.40;99.90;;;;;;5033213;28;20069;-88
2023/04/30 06:36:38;;;;;;;30.35;12.88;;;10.50;99.90;;;;;;5034221;28;20448;-86
2023/04/30 06:41:52;;;;;;;27.48;12.20;;;10.70;99.90;;;;;;5033708;28;20534;-84
2023/04/30 06:44:20;;;;;;;31.55;13.55;;;10.80;99.90;;;;;;5014285;28;20041;-86
2023/04/30 06:46:48;;;;;;;41.45;14.02;;;11.00;99.90;;;;;;5016605;28;20041;-83
2023/04/30 06:49:15;;;;;;;32.78;14.32;;;11.10;99.90;;;;;;5034169;28;20057;-86
2023/04/30 06:51:41;;;;;;;40.20;15.50;;;11.20;99.90;;;;;;5034700;28;20055;-85
2023/04/30 06:54:08;;;;;;;33.15;14.27;;;11.40;99.90;;;;;;5033290;28;20052;-82
2023/04/30 06:56:35;;;;;;;30.27;12.95;;;11.50;99.90;;;;;;5034433;28;20132;-84
2023/04/30 07:02:15;;;;;;;34.25;14.50;;;11.80;99.90;;;;;;5033082;28;20033;-83
2023/04/30 07:04:43;;;;;;;36.80;15.02;;;12.00;99.90;;;;;;5033957;28;20533;-83
2023/04/30 07:07:09;;;;;;;34.35;14.50;;;12.20;99.90;;;;;;5033392;28;20107;-81
2023/04/30 07:12:22;;;;;;;36.95;15.00;;;12.40;99.90;;;;;;5038792;28;20087;-85
2023/04/30 07:14:49;;;;;;;37.65;14.60;;;12.60;99.90;;;;;;5037972;28;20041;-86
2023/04/30 07:17:15;;;;;;;35.60;15.82;;;12.70;99.90;;;;;;5037800;28;20061;-86
2023/04/30 07:19:42;;;;;;;37.72;15.80;;;12.80;99.90;;;;;;5021020;28;20042;-87
2023/04/30 07:22:09;;;;;;;35.42;16.08;;;12.90;99.90;;;;;;5020478;28;20119;-83
2023/04/30 07:24:35;;;;;;;35.20;16.60;;;13.10;99.90;;;;;;5037974;28;20052;-84
2023/04/30 07:27:02;;;;;;;38.65;18.40;;;13.20;99.90;;;;;;5037238;28;20124;-87
2023/04/30 07:29:30;;;;;;;39.08;18.75;;;13.30;99.90;;;;;;5021762;28;20056;-86
2023/04/30 07:31:57;;;;;;;42.47;18.10;;;13.40;99.90;;;;;;5021957;28;20061;-86
2023/04/30 07:34:24;;;;;;;36.13;17.27;;;13.50;99.90;;;;;;5021003;28;20053;-83
2023/04/30 07:36:51;;;;;;;40.15;17.23;;;13.70;99.90;;;;;;5037467;28;20084;-85
2023/04/30 07:42:23;;;;;;;40.10;16.25;;;14.00;99.90;;;;;;5036663;28;20426;-88
2023/04/30 07:44:51;;;;;;;36.47;16.20;;;14.30;99.90;;;;;;5030742;28;20065;-87
2023/04/30 07:47:18;;;;;;;39.88;16.55;;;14.50;99.90;;;;;;5009044;28;20056;-86
2023/04/30 07:49:45;;;;;;;35.08;15.73;;;14.60;99.90;;;;;;5013310;28;20115;-86
2023/04/30 07:52:12;;;;;;;38.22;17.60;;;14.80;99.90;;;;;;5020412;28;20057;-82
2023/04/30 07:54:39;;;;;;;36.10;18.85;;;14.80;99.90;;;;;;5015633;28;20372;-79
2023/04/30 07:57:06;;;;;;;43.67;18.52;;;14.60;99.90;;;;;;5035661;28;20053;-82
2023/04/30 08:02:19;;;;;;;44.50;18.98;;;14.60;99.90;;;;;;5035893;28;20037;-84
2023/04/30 08:04:46;;;;;;;39.45;18.45;;;14.70;99.90;;;;;;5020662;28;20065;-84
2023/04/30 08:07:15;;;;;;;37.92;17.63;;;14.70;99.90;;;;;;5033640;28;20128;-82
2023/04/30 08:09:42;;;;;;;40.15;17.92;;;15.10;99.90;;;;;;5024864;28;20126;-81
2023/04/30 08:12:08;;;;;;;39.75;17.02;;;15.20;99.90;;;;;;5025217;28;20045;-84
2023/04/30 08:14:35;;;;;;;40.42;17.60;;;15.40;99.90;;;;;;5021109;28;20042;-84
2023/04/30 08:17:02;;;;;;;40.40;18.83;;;15.40;99.90;;;;;;5017172;28;20054;-86
2023/04/30 08:23:16;;;;;;;43.33;16.67;;;15.80;99.90;;;;;;5016327;28;20049;-88
2023/04/30 08:25:54;;;;;;;40.50;18.20;;;15.90;99.90;;;;;;5017282;28;20389;-89
2023/04/30 08:31:08;;;;;;;36.40;16.85;;;16.00;99.90;;;;;;5017536;28;20050;-91
2023/04/30 08:33:35;;;;;;;36.88;17.73;;;16.30;99.90;;;;;;5028052;28;20072;-86
2023/04/30 08:36:02;;;;;;;36.50;16.00;;;16.50;99.90;;;;;;5033424;28;20136;-87
2023/04/30 08:38:30;;;;;;;34.08;16.75;;;16.70;99.90;;;;;;5020600;28;20146;-88
2023/04/30 08:40:57;;;;;;;36.20;18.17;;;17.00;99.90;;;;;;5035358;28;20110;-86
2023/04/30 08:43:23;;;;;;;39.13;18.67;;;17.00;99.90;;;;;;5016410;28;20050;-88
2023/04/30 08:45:51;;;;;;;33.42;15.63;;;17.10;99.90;;;;;;5032256;28;20045;-85
2023/04/30 08:51:04;;;;;;;35.10;16.27;;;17.20;99.90;;;;;;5035377;28;20045;-84
2023/04/30 08:53:31;;;;;;;31.92;15.65;;;17.10;99.90;;;;;;5027160;28;20445;-85
2023/04/30 08:55:58;;;;;;;35.30;15.55;;;17.10;99.90;;;;;;5033834;28;20061;-87
2023/04/30 08:58:25;;;;;;;32.15;15.73;;;17.10;99.90;;;;;;5035635;28;20046;-88
2023/04/30 09:00:52;;;;;;;29.92;14.85;;;17.00;99.90;;;;;;5034892;28;20453;-87
2023/04/30 09:03:20;;;;;;;31.70;14.02;;;17.00;99.90;;;;;;5035324;28;20124;-86
2023/04/30 09:05:47;;;;;;;29.88;14.10;;;17.10;99.90;;;;;;5035624;28;20058;-87
2023/04/30 09:08:14;;;;;;;32.92;15.88;;;17.10;99.90;;;;;;5018158;28;20049;-88
2023/04/30 09:10:41;;;;;;;29.85;14.68;;;17.20;99.90;;;;;;5035419;28;20053;-86
2023/04/30 09:13:08;;;;;;;29.10;14.40;;;17.40;99.90;;;;;;5018495;28;20053;-86
2023/04/30 09:15:35;;;;;;;29.33;13.05;;;17.50;99.90;;;;;;5034444;28;20124;-86
2023/04/30 09:18:01;;;;;;;29.75;13.88;;;17.50;99.90;;;;;;5018757;28;20130;-87
2023/04/30 09:20:28;;;;;;;23.80;12.43;;;17.30;99.90;;;;;;5034375;28;20139;-87
2023/04/30 09:22:55;;;;;;;27.88;12.20;;;17.30;99.90;;;;;;5018479;28;20060;-86
2023/04/30 09:25:22;;;;;;;26.05;12.65;;;17.50;99.90;;;;;;5035187;28;20447;-88
2023/04/30 09:27:48;;;;;;;23.83;12.73;;;17.70;99.90;;;;;;5018115;28;20136;-88
2023/04/30 09:30:15;;;;;;;22.80;11.20;;;17.80;99.90;;;;;;5035309;28;20049;-88
2023/04/30 09:32:42;;;;;;;21.40;11.02;;;18.00;99.90;;;;;;5017935;28;20103;-87
2023/04/30 09:35:08;;;;;;;21.08;10.05;;;18.20;99.90;;;;;;5017441;28;20049;-85
2023/04/30 09:37:35;;;;;;;21.45;9.35;;;18.30;99.90;;;;;;5034596;28;20052;-84
2023/04/30 09:40:03;;;;;;;18.17;8.15;;;18.50;99.90;;;;;;5035281;28;20049;-84
2023/04/30 09:42:30;;;;;;;17.65;8.88;;;18.60;99.90;;;;;;5033088;28;20037;-84
2023/04/30 09:44:56;;;;;;;21.42;8.75;;;18.60;99.90;;;;;;5034067;28;20139;-84
2023/04/30 09:47:23;;;;;;;25.10;11.07;;;18.60;99.90;;;;;;5033219;28;20037;-84
2023/04/30 09:49:53;;;;;;;22.98;11.48;;;18.40;99.90;;;;;;5034102;28;20519;-84
2023/04/30 09:52:20;;;;;;;25.10;10.10;;;18.40;99.90;;;;;;5034566;28;20053;-84
2023/04/30 09:54:49;;;;;;;20.52;9.93;;;18.60;99.90;;;;;;5033262;28;20068;-84
2023/04/30 09:57:16;;;;;;;22.55;10.35;;;18.60;99.90;;;;;;5035392;28;20448;-88
2023/04/30 09:59:43;;;;;;;18.80;9.43;;;18.70;99.90;;;;;;5034978;28;20033;-88
2023/04/30 10:02:09;;;;;;;15.07;8.35;;;18.80;99.90;;;;;;5034385;28;20079;-88
2023/04/30 10:04:36;;;;;;;18.80;9.75;;;18.90;99.90;;;;;;5018679;28;20049;-88
2023/04/30 10:07:03;;;;;;;18.73;8.85;;;19.00;99.90;;;;;;5033581;28;20045;-87
2023/04/30 10:09:29;;;;;;;16.30;9.13;;;19.10;99.90;;;;;;5018058;28;20037;-87
2023/04/30 10:11:56;;;;;;;22.75;9.75;;;19.30;99.90;;;;;;5017816;28;20041;-87
2023/04/30 10:14:23;;;;;;;19.95;10.20;;;19.20;99.90;;;;;;5033685;28;20038;-87
2023/04/30 10:16:50;;;;;;;19.00;10.20;;;19.10;99.90;;;;;;5033994;28;20045;-87
2023/04/30 10:22:04;;;;;;;21.05;10.68;;;19.20;99.90;;;;;;5033874;28;20140;-88
2023/04/30 10:24:30;;;;;;;20.05;11.05;;;19.40;99.90;;;;;;5034446;28;20050;-88
2023/04/30 10:26:57;;;;;;;20.58;10.23;;;19.70;99.90;;;;;;5033890;28;20533;-88
2023/04/30 10:29:24;;;;;;;20.80;10.60;;;20.10;99.90;;;;;;5019181;28;20119;-88
2023/04/30 10:31:51;;;;;;;20.05;11.20;;;20.30;99.90;;;;;;5034576;28;20049;-87
2023/04/30 10:34:18;;;;;;;20.35;11.18;;;20.50;99.90;;;;;;5017132;28;20127;-88
2023/04/30 10:36:45;;;;;;;18.42;10.25;;;20.50;99.90;;;;;;5034545;28;20152;-87
2023/04/30 10:41:59;;;;;;;17.33;9.50;;;20.70;99.90;;;;;;5028057;28;20042;-87
2023/04/30 10:44:26;;;;;;;16.90;9.27;;;20.60;99.90;;;;;;5019756;28;20053;-87
2023/04/30 10:46:53;;;;;;;18.00;9.15;;;20.80;99.90;;;;;;5024635;28;20049;-87
2023/04/30 10:52:06;;;;;;;16.55;9.75;;;21.20;99.90;;;;;;5021655;28;20059;-87
2023/04/30 10:54:33;;;;;;;12.00;6.82;;;21.20;99.30;;;;;;5037687;28;20049;-87
2023/04/30 10:57:00;;;;;;;12.52;6.47;;;21.00;96.60;;;;;;5037927;28;20045;-88
2023/04/30 11:02:14;;;;;;;14.05;6.03;;;21.40;97.00;;;;;;5037161;28;20148;-86
2023/04/30 11:04:40;;;;;;;12.70;5.38;;;21.40;94.70;;;;;;5037693;28;20076;-86
2023/04/30 11:07:07;;;;;;;12.68;6.38;;;21.50;95.80;;;;;;5036577;28;20053;-84
2023/04/30 11:12:05;;;;;;;11.57;6.28;;;21.60;93.70;;;;;;5037337;28;20060;-87
2023/04/30 11:14:31;;;;;;;12.18;6.10;;;21.90;93.20;;;;;;5020408;28;20468;-88
2023/04/30 11:16:58;;;;;;;13.90;7.25;;;21.90;95.80;;;;;;5037565;28;20387;-88
2023/04/30 11:19:25;;;;;;;13.20;8.30;;;21.90;91.70;;;;;;5021120;28;20041;-87
2023/04/30 11:21:52;;;;;;;12.73;7.50;;;22.10;91.10;;;;;;5036651;28;20460;-88
2023/04/30 11:24:18;;;;;;;14.43;6.90;;;22.30;91.40;;;;;;5021247;28;20045;-87
2023/04/30 11:26:45;;;;;;;13.00;6.93;;;22.30;90.60;;;;;;5037559;28;20052;-88
2023/04/30 11:32:25;;;;;;;11.02;6.63;;;22.30;90.60;;;;;;5037380;28;20041;-87
2023/04/30 11:34:51;;;;;;;13.77;7.50;;;22.30;90.20;;;;;;5037379;28;20041;-87
2023/04/30 11:37:19;;;;;;;14.50;8.98;;;22.60;92.20;;;;;;5020825;28;20383;-87
2023/04/30 11:39:46;;;;;;;14.38;6.65;;;22.60;90.40;;;;;;5020744;28;20049;-87
2023/04/30 11:42:12;;;;;;;11.70;8.15;;;22.70;90.90;;;;;;5020238;28;20109;-88
2023/04/30 11:44:39;;;;;;;13.32;7.22;;;22.80;88.60;;;;;;5002164;28;20038;-87
2023/04/30 11:47:06;;;;;;;13.73;9.02;;;22.40;88.50;;;;;;5039544;28;20081;-89
2023/04/30 11:49:35;;;;;;;14.98;6.28;;;22.20;88.90;;;;;;5038263;28;20069;-85
2023/04/30 11:52:02;;;;;;;12.40;8.30;;;22.40;89.20;;;;;;5029072;28;20065;-88
2023/04/30 11:54:29;;;;;;;14.07;7.75;;;22.60;88.20;;;;;;5019835;28;20045;-88
2023/04/30 11:57:02;;;;;;;11.20;7.78;;;22.70;86.60;;;;;;5017266;28;20042;-89
2023/04/30 11:59:31;;;;;;;10.70;6.82;;;22.70;85.80;;;;;;5017414;28;20400;-84
2023/04/30 12:01:58;;;;;;;15.00;6.28;;;22.40;85.60;;;;;;4999900;28;20046;-87
2023/04/30 12:04:24;;;;;;;11.93;7.63;;;22.20;85.90;;;;;;5017860;28;20088;-86
2023/04/30 12:06:51;;;;;;;10.35;6.60;;;22.20;86.40;;;;;;5017124;28;20050;-90
2023/04/30 12:09:19;;;;;;;17.67;6.32;;;22.50;87.20;;;;;;5017655;28;20075;-89
2023/04/30 12:11:45;;;;;;;13.18;6.75;;;22.50;84.20;;;;;;5001917;28;20136;-89
2023/04/30 12:14:13;;;;;;;12.15;7.20;;;22.50;86.10;;;;;;5001458;28;20092;-88
2023/04/30 12:16:40;;;;;;;12.43;5.72;;;22.40;84.70;;;;;;5001282;28;20046;-90
2023/04/30 12:19:08;;;;;;;10.40;7.35;;;22.40;81.30;;;;;;5017392;28;20121;-90
2023/04/30 12:21:35;;;;;;;12.40;5.88;;;22.70;84.90;;;;;;5016672;28;20061;-89
2023/04/30 12:24:02;;;;;;;12.05;6.45;;;22.80;83.80;;;;;;5017123;28;20153;-89
2023/04/30 12:26:29;;;;;;;12.60;7.15;;;22.90;83.10;;;;;;5000933;28;20068;-91
2023/04/30 12:31:44;;;;;;;10.93;6.55;;;23.40;81.80;;;;;;5017012;28;20125;-88
2023/04/30 12:34:11;;;;;;;12.15;7.38;;;23.20;82.80;;;;;;5000469;28;20046;-89
2023/04/30 12:36:41;;;;;;;9.52;6.30;;;23.20;81.20;;;;;;5016692;28;20136;-89
2023/04/30 12:39:10;;;;;;;9.75;6.22;;;23.20;79.60;;;;;;5016333;28;20376;-88
2023/04/30 12:41:37;;;;;;;9.07;5.70;;;23.20;80.70;;;;;;5015620;28;20056;-90
2023/04/30 12:44:03;;;;;;;11.15;6.05;;;23.20;82.00;;;;;;5000106;28;20052;-91
2023/04/30 12:46:30;;;;;;;11.63;6.47;;;23.40;79.70;;;;;;5029047;28;20379;-86
2023/04/30 12:51:44;;;;;;;9.55;6.32;;;23.20;76.60;;;;;;5036562;28;20037;-87
2023/04/30 12:54:10;;;;;;;9.38;6.03;;;23.50;79.40;;;;;;5012924;28;20037;-89
2023/04/30 12:56:37;;;;;;;10.60;5.50;;;23.40;79.20;;;;;;5020008;28;20053;-88
2023/04/30 12:59:05;;;;;;;9.23;6.10;;;23.20;79.00;;;;;;5020329;28;20136;-87
2023/04/30 13:01:33;;;;;;;10.38;5.90;;;23.10;78.10;;;;;;5019276;28;20052;-87
2023/04/30 13:04:00;;;;;;;11.65;5.10;;;22.90;77.70;;;;;;5020922;28;20068;-89
2023/04/30 13:06:27;;;;;;;11.27;4.93;;;22.70;77.10;;;;;;5035817;28;20040;-88
2023/04/30 13:08:56;;;;;;;9.48;5.95;;;22.10;76.60;;;;;;5019996;28;20041;-89
2023/04/30 13:11:25;;;;;;;11.15;6.90;;;22.10;79.90;;;;;;5021403;28;20136;-89
2023/04/30 13:13:54;;;;;;;12.23;5.97;;;21.90;75.90;;;;;;5036363;28;20111;-90
2023/04/30 13:16:26;;;;;;;9.60;5.75;;;22.20;79.40;;;;;;5021366;28;20050;-87
2023/04/30 13:21:40;;;;;;;10.48;4.75;;;22.20;75.60;;;;;;5034040;28;19928;-88
2023/04/30 13:24:07;;;;;;;9.63;6.25;;;22.50;77.90;;;;;;5018837;28;20037;-87
2023/04/30 13:26:33;;;;;;;11.23;5.40;;;22.90;75.00;;;;;;5034884;28;20048;-87
2023/04/30 13:29:01;;;;;;;10.45;5.28;;;23.10;78.30;;;;;;5017909;28;20041;-87
2023/04/30 13:31:27;;;;;;;8.50;5.00;;;23.20;76.90;;;;;;5018307;28;20052;-86
2023/04/30 13:33:54;;;;;;;11.10;4.35;;;23.10;74.70;;;;;;5018141;28;20079;-89
2023/04/30 13:36:21;;;;;;;8.82;4.97;;;23.20;74.50;;;;;;5018904;28;20115;-88
2023/04/30 13:41:35;;;;;;;10.70;5.53;;;23.40;72.20;;;;;;5022434;28;20049;-91
2023/04/30 13:44:03;;;;;;;10.02;5.85;;;24.00;73.10;;;;;;5001623;28;20120;-84
2023/04/30 13:46:30;;;;;;;9.10;5.22;;;23.80;69.30;;;;;;4999139;28;20054;-88
2023/04/30 13:51:28;;;;;;;11.77;6.38;;;24.10;70.80;;;;;;5035195;28;20136;-90
2023/04/30 13:53:55;;;;;;;9.68;5.72;;;23.80;70.70;;;;;;5034823;28;20069;-87
2023/04/30 13:56:22;;;;;;;8.45;5.53;;;23.40;74.30;;;;;;5036645;28;20053;-91
2023/04/30 14:01:21;;;;;;;12.70;6.22;;;23.10;70.40;;;;;;5038320;28;20045;-89
2023/04/30 14:03:48;;;;;;;9.70;6.38;;;22.80;72.10;;;;;;5021817;28;20041;-89
2023/04/30 14:06:19;;;;;;;12.23;6.13;;;22.90;76.50;;;;;;5037485;28;20514;-94
2023/04/30 14:12:28;;;;;;;10.75;5.50;;;23.40;74.20;;;;;;5024580;28;20052;-90
2023/04/30 14:15:05;;;;;;;10.23;5.38;;;23.60;70.90;;;;;;5037807;28;20045;-90
2023/04/30 14:20:36;;;;;;;8.68;4.43;;;23.50;70.40;;;;;;5029772;28;20191;-90
2023/04/30 14:23:03;;;;;;;9.95;5.13;;;23.10;69.20;;;;;;5024469;28;20049;-88
2023/04/30 14:25:34;;;;;;;;;;;23.00;70.60;;;;;;5021715;28;20060;-87
2023/04/30 14:28:04;;;;;;;9.40;5.65;;;23.00;72.90;;;;;;5025264;28;19921;-90
2023/04/30 14:30:30;;;;;;;9.85;5.05;;;23.00;72.20;;;;;;4997215;28;20054;-86
2023/04/30 14:32:57;;;;;;;9.52;4.45;;;22.80;71.30;;;;;;5018575;28;20033;-88
2023/04/30 14:35:24;;;;;;;8.48;3.55;;;22.60;70.90;;;;;;5034893;28;20045;-87
2023/04/30 14:40:37;;;;;;;8.15;4.00;;;22.20;70.90;;;;;;5033986;28;20156;-88
2023/04/30 14:43:04;;;;;;;12.25;4.63;;;22.00;73.80;;;;;;5017727;28;20041;-89
2023/04/30 14:45:31;;;;;;;8.82;5.47;;;22.20;71.90;;;;;;5033764;28;20055;-89
2023/04/30 14:48:02;;;;;;;9.05;3.95;;;22.00;72.10;;;;;;5033560;28;20095;-89
2023/04/30 14:50:31;;;;;;;9.63;4.45;;;22.00;71.80;;;;;;5034395;28;20037;-89
2023/04/30 14:52:58;;;;;;;8.38;3.97;;;21.90;73.10;;;;;;5034224;28;20045;-89